Time;durP1;ratioP1;P1;durP2;ratioP2;P2;SDS_P1;SDS_P2;PMS_P1;PMS_P2;Temp;Humidity;BMP_temperature;BMP_pressure;BME280_temperature;BME280_humidity;BME280_pressure;Samples;Min_cycle;Max_cycle;Signal;HPM_P1;HPM_P2
2020/12/30 00:00:10;;;;;;;4.20;2.70;;;2.70;40.80;;;;;;5068804;28;20048;-73
2020/12/30 00:02:38;;;;;;;3.80;2.47;;;2.90;41.50;;;;;;5071051;28;20044;-73
2020/12/30 00:05:07;;;;;;;3.85;2.60;;;2.90;40.30;;;;;;5070106;28;20520;-74
2020/12/30 00:07:35;;;;;;;3.83;3.00;;;2.90;39.20;;;;;;5068419;28;20057;-74
2020/12/30 00:10:02;;;;;;;3.97;2.60;;;2.80;39.70;;;;;;5068394;28;20422;-73
2020/12/30 00:12:28;;;;;;;5.50;2.95;;;2.80;40.10;;;;;;5069912;28;20047;-72
2020/12/30 00:14:56;;;;;;;3.85;2.58;;;2.80;40.60;;;;;;5068380;28;20131;-73
2020/12/30 00:17:23;;;;;;;4.90;2.88;;;2.80;40.20;;;;;;5068406;28;20053;-73
2020/12/30 00:19:51;;;;;;;4.53;2.90;;;2.80;40.30;;;;;;5066188;28;20040;-73
2020/12/30 00:22:17;;;;;;;6.32;3.53;;;2.80;40.90;;;;;;5070755;28;20052;-73
2020/12/30 00:24:45;;;;;;;4.60;2.95;;;2.80;40.90;;;;;;5069789;28;20518;-72
2020/12/30 00:27:12;;;;;;;4.95;2.80;;;2.80;41.10;;;;;;5066274;28;20052;-73
2020/12/30 00:29:39;;;;;;;4.68;2.90;;;2.90;41.10;;;;;;5066864;28;20512;-72
2020/12/30 00:32:09;;;;;;;4.63;2.53;;;2.90;40.10;;;;;;5070297;28;20058;-72
2020/12/30 00:34:37;;;;;;;4.20;2.70;;;2.90;40.00;;;;;;5069369;28;20414;-74
2020/12/30 00:37:04;;;;;;;4.68;3.03;;;2.90;40.00;;;;;;5066609;28;20052;-73
2020/12/30 00:39:31;;;;;;;4.57;2.80;;;2.90;40.20;;;;;;5066281;28;20062;-73
2020/12/30 00:41:58;;;;;;;5.93;3.28;;;3.00;39.90;;;;;;5071094;28;20055;-73
2020/12/30 00:44:25;;;;;;;3.92;2.45;;;3.00;40.00;;;;;;5068527;28;20067;-73
2020/12/30 00:46:52;;;;;;;3.90;2.45;;;3.00;39.80;;;;;;5068368;28;20045;-73
2020/12/30 00:49:20;;;;;;;7.35;2.88;;;3.10;39.40;;;;;;5065930;28;20526;-73
2020/12/30 00:51:51;;;;;;;4.18;2.47;;;3.10;39.20;;;;;;5070017;28;20119;-73
2020/12/30 00:54:18;;;;;;;4.50;2.90;;;3.10;38.90;;;;;;5069222;28;20052;-73
2020/12/30 00:56:46;;;;;;;5.22;2.65;;;3.10;37.90;;;;;;5069531;28;20406;-73
2020/12/30 00:59:13;;;;;;;6.90;2.25;;;3.20;38.20;;;;;;5065152;28;20048;-73
2020/12/30 01:01:41;;;;;;;2.90;2.10;;;3.20;38.70;;;;;;5069629;28;20056;-71
2020/12/30 01:04:08;;;;;;;5.43;2.42;;;3.20;38.20;;;;;;5068798;28;20043;-73
2020/12/30 01:06:36;;;;;;;3.08;2.72;;;3.20;38.50;;;;;;5069926;28;20048;-73
2020/12/30 01:09:05;;;;;;;4.00;2.60;;;3.30;37.60;;;;;;5063935;28;20079;-73
2020/12/30 01:11:32;;;;;;;5.43;2.97;;;3.30;36.60;;;;;;5068107;28;20054;-73
2020/12/30 01:14:00;;;;;;;3.05;2.50;;;3.30;36.60;;;;;;5068731;28;20071;-73
2020/12/30 01:16:27;;;;;;;4.32;2.75;;;3.30;36.60;;;;;;5066192;28;20052;-74
2020/12/30 01:18:54;;;;;;;4.13;2.70;;;3.40;35.50;;;;;;5062635;28;20052;-73
2020/12/30 01:21:21;;;;;;;5.13;2.47;;;3.40;34.60;;;;;;5069285;28;20820;-74
2020/12/30 01:23:48;;;;;;;4.45;3.03;;;3.40;33.80;;;;;;5066658;28;20502;-74
2020/12/30 01:26:15;;;;;;;3.42;2.40;;;3.40;34.40;;;;;;5067730;28;20158;-73
2020/12/30 01:28:42;;;;;;;5.18;2.50;;;3.40;34.50;;;;;;5062195;28;20048;-74
2020/12/30 01:31:09;;;;;;;3.92;2.63;;;3.40;34.70;;;;;;5068279;28;20174;-73
2020/12/30 01:33:36;;;;;;;3.78;2.35;;;3.40;34.60;;;;;;5066064;28;20044;-74
2020/12/30 01:36:04;;;;;;;4.85;2.58;;;3.40;34.50;;;;;;5067029;28;20125;-73
2020/12/30 01:38:32;;;;;;;8.63;2.47;;;3.40;34.40;;;;;;5061030;28;20532;-73
2020/12/30 01:41:00;;;;;;;4.05;2.15;;;3.50;34.30;;;;;;5068816;28;20073;-72
2020/12/30 01:43:27;;;;;;;3.72;2.40;;;3.50;33.70;;;;;;5069057;28;20052;-73
2020/12/30 01:45:54;;;;;;;3.42;2.22;;;3.50;32.60;;;;;;5068437;28;20040;-72
2020/12/30 01:48:23;;;;;;;3.78;2.13;;;3.50;33.50;;;;;;5060646;28;20040;-73
2020/12/30 01:50:50;;;;;;;3.90;1.98;;;3.50;34.10;;;;;;5067362;28;20131;-73
2020/12/30 01:53:18;;;;;;;5.40;2.60;;;3.50;32.60;;;;;;5069231;28;20056;-73
2020/12/30 01:55:45;;;;;;;3.47;2.28;;;3.40;34.30;;;;;;5066518;28;20142;-73
2020/12/30 01:58:13;;;;;;;3.25;2.40;;;3.40;34.40;;;;;;5060991;28;20426;-73
2020/12/30 02:00:41;;;;;;;4.25;2.22;;;3.40;34.10;;;;;;5068565;28;20517;-72
2020/12/30 02:03:09;;;;;;;3.13;2.08;;;3.40;34.20;;;;;;5068703;28;20050;-72
2020/12/30 02:05:37;;;;;;;6.10;2.28;;;3.40;34.20;;;;;;5066445;28;20070;-73
2020/12/30 02:08:05;;;;;;;4.03;2.20;;;3.40;34.10;;;;;;5062388;28;20143;-72
2020/12/30 02:10:32;;;;;;;3.60;2.20;;;3.40;34.30;;;;;;5064262;28;20048;-73
2020/12/30 02:12:59;;;;;;;4.07;2.22;;;3.40;35.20;;;;;;5068595;28;20040;-73
2020/12/30 02:15:28;;;;;;;4.82;2.53;;;3.40;36.10;;;;;;5067831;28;20048;-73
2020/12/30 02:17:56;;;;;;;3.78;2.10;;;3.40;36.70;;;;;;5060299;28;20045;-73
2020/12/30 02:20:23;;;;;;;2.85;2.22;;;3.40;35.70;;;;;;5067539;28;20072;-72
2020/12/30 02:22:56;;;;;;;3.33;2.20;;;3.40;36.70;;;;;;5068854;28;20044;-73
2020/12/30 02:25:24;;;;;;;3.80;2.55;;;3.30;36.60;;;;;;5064780;28;20044;-73
2020/12/30 02:27:51;;;;;;;3.45;2.53;;;3.30;36.90;;;;;;5062246;28;20054;-73
2020/12/30 02:30:19;;;;;;;4.30;3.17;;;3.20;36.60;;;;;;5064534;28;20051;-74
2020/12/30 02:32:46;;;;;;;5.97;3.45;;;3.20;36.60;;;;;;5064615;28;20055;-75
2020/12/30 02:35:13;;;;;;;5.10;3.20;;;3.20;36.60;;;;;;5067860;28;20048;-74
2020/12/30 02:37:41;;;;;;;4.38;2.70;;;3.10;36.50;;;;;;5062492;28;20129;-75
2020/12/30 02:40:08;;;;;;;6.00;3.65;;;3.00;37.70;;;;;;5062701;28;20052;-73
2020/12/30 02:42:36;;;;;;;25.58;11.07;;;3.00;38.70;;;;;;5066357;28;20058;-75
2020/12/30 02:45:06;;;;;;;21.88;9.60;;;2.90;38.70;;;;;;5064913;28;20051;-75
2020/12/30 02:47:33;;;;;;;15.88;7.18;;;2.90;39.40;;;;;;5064348;28;20048;-73
2020/12/30 02:50:01;;;;;;;10.23;5.75;;;2.90;39.50;;;;;;5062480;28;20053;-74
2020/12/30 02:52:28;;;;;;;7.88;4.00;;;3.00;39.60;;;;;;5069482;28;20052;-74
2020/12/30 02:54:55;;;;;;;4.68;2.90;;;3.00;39.10;;;;;;5062962;28;20059;-74
2020/12/30 02:57:22;;;;;;;3.38;2.30;;;3.10;39.20;;;;;;5062924;28;20419;-74
2020/12/30 02:59:55;;;;;;;1.75;1.58;;;3.20;37.50;;;;;;5063713;28;20049;-74
2020/12/30 03:02:24;;;;;;;3.20;1.93;;;3.20;36.60;;;;;;5066130;28;20494;-74
2020/12/30 03:04:51;;;;;;;2.03;1.63;;;3.30;36.60;;;;;;5067485;28;20400;-74
2020/12/30 03:07:18;;;;;;;3.42;1.70;;;3.30;36.60;;;;;;5068867;28;20135;-72
2020/12/30 03:09:45;;;;;;;2.25;1.50;;;3.40;35.50;;;;;;5065636;28;20048;-74
2020/12/30 03:12:12;;;;;;;2.35;1.63;;;3.40;35.60;;;;;;5069156;28;20057;-73
2020/12/30 03:14:39;;;;;;;2.47;1.77;;;3.40;35.50;;;;;;5067008;28;20407;-75
2020/12/30 03:17:06;;;;;;;3.15;2.15;;;3.40;35.60;;;;;;5061532;28;20063;-73
2020/12/30 03:19:33;;;;;;;2.97;1.80;;;3.40;35.80;;;;;;5059811;28;20044;-75
2020/12/30 03:22:00;;;;;;;3.38;1.98;;;3.40;36.70;;;;;;5068475;28;20045;-73
2020/12/30 03:24:27;;;;;;;2.83;1.80;;;3.40;35.80;;;;;;5066616;28;20048;-74
2020/12/30 03:26:53;;;;;;;2.90;1.95;;;3.40;35.00;;;;;;5065415;28;20048;-75
2020/12/30 03:29:20;;;;;;;2.30;1.80;;;3.30;35.50;;;;;;5067418;28;20059;-74
2020/12/30 03:31:47;;;;;;;3.83;1.67;;;3.40;35.30;;;;;;5066916;28;20390;-73
2020/12/30 03:34:15;;;;;;;3.65;2.20;;;3.40;35.60;;;;;;5065239;28;20041;-74
2020/12/30 03:36:42;;;;;;;5.40;2.33;;;3.40;35.20;;;;;;5067871;28;20044;-74
2020/12/30 03:39:09;;;;;;;2.28;1.60;;;3.40;35.30;;;;;;5064042;28;20040;-75
2020/12/30 03:41:36;;;;;;;2.65;2.13;;;3.30;34.90;;;;;;5066761;28;20041;-73
2020/12/30 03:44:03;;;;;;;2.92;2.17;;;3.30;35.60;;;;;;5065473;28;20561;-74
2020/12/30 03:46:30;;;;;;;3.80;1.92;;;3.20;36.60;;;;;;5068506;28;20589;-74
2020/12/30 03:48:56;;;;;;;2.83;1.90;;;3.20;37.40;;;;;;5062910;28;20048;-74
2020/12/30 03:51:24;;;;;;;2.60;1.83;;;3.10;37.80;;;;;;5072045;28;20049;-73
2020/12/30 03:53:51;;;;;;;2.85;1.83;;;3.10;37.70;;;;;;5068787;28;20656;-74
2020/12/30 03:56:18;;;;;;;3.22;2.08;;;3.10;37.70;;;;;;5070307;28;20051;-72
2020/12/30 03:58:44;;;;;;;2.10;1.60;;;3.10;37.70;;;;;;5063346;28;20060;-73
2020/12/30 04:01:24;;;;;;;4.18;1.70;;;3.00;37.90;;;;;;5071071;28;20065;-73
2020/12/30 04:03:51;;;;;;;3.50;1.70;;;3.00;37.70;;;;;;5070031;28;20059;-75
2020/12/30 04:06:20;;;;;;;3.17;1.80;;;2.90;38.00;;;;;;5068105;28;20056;-74
2020/12/30 04:08:47;;;;;;;5.32;1.67;;;2.80;39.10;;;;;;5062912;28;20048;-73
2020/12/30 04:11:14;;;;;;;4.10;2.17;;;2.70;40.00;;;;;;5071188;28;20045;-73
2020/12/30 04:13:41;;;;;;;5.90;1.75;;;2.60;40.20;;;;;;5070494;28;20080;-72
2020/12/30 04:16:08;;;;;;;4.07;2.00;;;2.60;40.70;;;;;;5071958;28;20078;-73
2020/12/30 04:18:36;;;;;;;5.25;1.70;;;2.40;41.00;;;;;;5065664;28;20456;-73
2020/12/30 04:21:03;;;;;;;2.30;1.40;;;2.40;42.40;;;;;;5069986;28;20130;-74
2020/12/30 04:23:29;;;;;;;4.05;1.70;;;2.30;43.70;;;;;;5070192;28;20070;-76
2020/12/30 04:25:57;;;;;;;2.50;1.60;;;2.30;44.00;;;;;;5069329;28;20048;-74
2020/12/30 04:28:24;;;;;;;2.83;1.60;;;2.20;44.40;;;;;;5064976;28;20052;-74
2020/12/30 04:30:51;;;;;;;4.20;1.90;;;2.30;44.20;;;;;;5068289;28;20422;-74
2020/12/30 04:33:18;;;;;;;3.83;2.00;;;2.20;44.00;;;;;;5071485;28;20059;-73
2020/12/30 04:35:45;;;;;;;4.78;2.00;;;2.20;45.00;;;;;;5070007;28;20086;-73
2020/12/30 04:38:11;;;;;;;5.10;1.98;;;2.20;45.50;;;;;;5064172;28;20479;-72
2020/12/30 04:40:39;;;;;;;2.22;1.63;;;2.20;45.50;;;;;;5069947;28;20413;-73
2020/12/30 04:43:07;;;;;;;2.72;1.50;;;2.30;45.50;;;;;;5071266;28;20052;-73
2020/12/30 04:45:34;;;;;;;4.00;1.70;;;2.30;44.00;;;;;;5069495;28;20083;-74
2020/12/30 04:48:02;;;;;;;1.95;1.20;;;2.30;44.30;;;;;;5064775;28;20044;-73
2020/12/30 04:50:29;;;;;;;3.33;1.60;;;2.40;44.10;;;;;;5070497;28;20049;-73
2020/12/30 04:52:56;;;;;;;5.30;1.73;;;2.50;43.00;;;;;;5071712;28;20048;-73
2020/12/30 04:55:24;;;;;;;4.55;1.88;;;2.60;41.60;;;;;;5069055;28;20051;-73
2020/12/30 04:58:04;;;;;;;6.63;1.90;;;2.50;41.90;;;;;;5066229;28;20051;-73
2020/12/30 05:00:35;;;;;;;4.18;1.90;;;2.40;41.80;;;;;;5065398;28;20056;-73
2020/12/30 05:03:08;;;;;;;3.75;2.00;;;2.50;41.60;;;;;;5069271;28;20044;-74
2020/12/30 05:05:37;;;;;;;6.60;1.85;;;2.40;41.30;;;;;;5068082;28;20048;-73
2020/12/30 05:08:08;;;;;;;4.25;1.98;;;2.40;41.00;;;;;;5065493;28;20044;-74
2020/12/30 05:10:37;;;;;;;7.03;2.22;;;2.40;41.30;;;;;;5068755;28;20139;-72
2020/12/30 05:13:05;;;;;;;4.32;2.28;;;2.40;40.40;;;;;;5067824;28;20045;-73
2020/12/30 05:15:33;;;;;;;3.60;2.20;;;2.40;40.00;;;;;;5067931;28;20054;-73
2020/12/30 05:18:03;;;;;;;6.30;2.40;;;2.40;39.90;;;;;;5062871;28;20048;-73
2020/12/30 05:20:35;;;;;;;3.08;1.98;;;2.40;39.40;;;;;;5067848;28;20535;-73
2020/12/30 05:23:04;;;;;;;4.47;2.20;;;2.40;39.90;;;;;;5069392;28;20571;-74
2020/12/30 05:25:34;;;;;;;4.03;2.17;;;2.40;39.70;;;;;;5066683;28;20044;-73
2020/12/30 05:28:03;;;;;;;3.47;2.35;;;2.40;40.00;;;;;;5061379;28;20453;-73
2020/12/30 05:30:30;;;;;;;3.17;2.20;;;2.50;39.80;;;;;;5067561;28;20040;-73
2020/12/30 05:32:59;;;;;;;4.45;2.58;;;2.50;39.10;;;;;;5070995;28;20048;-72
2020/12/30 05:35:27;;;;;;;3.30;2.20;;;2.50;38.70;;;;;;5067735;28;20057;-74
2020/12/30 05:37:55;;;;;;;3.53;2.08;;;2.50;39.20;;;;;;5064646;28;20529;-74
2020/12/30 05:40:23;;;;;;;3.97;2.22;;;2.50;39.00;;;;;;5068625;28;20048;-73
2020/12/30 05:42:51;;;;;;;4.72;2.83;;;2.40;39.30;;;;;;5069537;28;20048;-72
2020/12/30 05:45:19;;;;;;;5.18;2.38;;;2.50;39.30;;;;;;5067044;28;20423;-74
2020/12/30 05:47:46;;;;;;;4.80;2.38;;;2.40;39.10;;;;;;5064569;28;20058;-76
2020/12/30 05:50:22;;;;;;;3.90;2.97;;;2.40;39.60;;;;;;5065258;28;20051;-73
2020/12/30 05:52:49;;;;;;;4.70;2.92;;;2.40;40.70;;;;;;5068258;28;20052;-73
2020/12/30 05:55:16;;;;;;;4.80;3.40;;;2.30;40.20;;;;;;5067700;28;20041;-73
2020/12/30 05:57:47;;;;;;;4.55;2.42;;;2.30;41.10;;;;;;5063247;28;20438;-74
2020/12/30 06:00:14;;;;;;;4.38;2.50;;;2.20;41.60;;;;;;5066229;28;20386;-72
2020/12/30 06:02:42;;;;;;;5.00;2.75;;;2.20;41.90;;;;;;5068422;28;20059;-73
2020/12/30 06:05:12;;;;;;;4.43;2.83;;;2.20;42.20;;;;;;5066957;28;20051;-73
2020/12/30 06:07:41;;;;;;;4.07;2.53;;;2.20;42.80;;;;;;5064714;28;20040;-73
2020/12/30 06:10:09;;;;;;;5.05;2.90;;;2.20;42.60;;;;;;5066016;28;20044;-73
2020/12/30 06:12:43;;;;;;;3.63;2.67;;;2.20;42.60;;;;;;5066981;28;20048;-74
2020/12/30 06:15:14;;;;;;;5.38;2.55;;;2.20;42.50;;;;;;5067035;28;20127;-73
2020/12/30 06:17:51;;;;;;;5.82;2.75;;;2.20;42.70;;;;;;5064465;28;20521;-73
2020/12/30 06:20:23;;;;;;;5.80;3.28;;;2.20;43.40;;;;;;5067460;28;20055;-74
2020/12/30 06:22:59;;;;;;;6.82;3.17;;;2.10;43.90;;;;;;5066796;28;20041;-74
2020/12/30 06:25:27;;;;;;;5.47;2.90;;;2.10;43.90;;;;;;5065637;28;20049;-72
2020/12/30 06:27:55;;;;;;;6.85;2.53;;;2.10;43.90;;;;;;5063323;28;20072;-73
2020/12/30 06:30:23;;;;;;;5.53;2.88;;;2.10;43.90;;;;;;5067136;28;20040;-73
2020/12/30 06:32:50;;;;;;;4.78;3.15;;;2.10;43.90;;;;;;5067501;28;20429;-74
2020/12/30 06:35:27;;;;;;;5.30;3.00;;;2.10;44.40;;;;;;5066668;28;20495;-73
2020/12/30 06:37:54;;;;;;;5.68;2.97;;;2.00;44.70;;;;;;5062432;28;20040;-73
2020/12/30 06:40:30;;;;;;;4.68;3.03;;;2.00;44.20;;;;;;5068610;28;20076;-73
2020/12/30 06:42:59;;;;;;;3.78;2.88;;;2.00;45.00;;;;;;5066680;28;20051;-73
2020/12/30 06:45:50;;;;;;;4.13;2.80;;;2.00;45.70;;;;;;5065509;28;20048;-73
2020/12/30 06:48:18;;;;;;;4.75;2.72;;;2.00;45.90;;;;;;5063149;28;20059;-74
2020/12/30 06:50:45;;;;;;;5.90;2.75;;;1.90;46.00;;;;;;5067242;28;20044;-72
2020/12/30 06:53:27;;;;;;;4.53;2.30;;;1.90;46.50;;;;;;5068348;28;20513;-73
2020/12/30 06:55:56;;;;;;;5.35;2.75;;;1.80;46.20;;;;;;5066776;28;20049;-73
2020/12/30 06:58:42;;;;;;;5.00;2.88;;;1.80;46.40;;;;;;5062638;28;20056;-73
2020/12/30 07:01:09;;;;;;;4.53;2.58;;;1.90;47.40;;;;;;5065110;28;20048;-73
2020/12/30 07:03:36;;;;;;;4.72;2.75;;;1.90;47.00;;;;;;5066793;28;20163;-75
2020/12/30 07:06:23;;;;;;;5.90;3.15;;;1.90;46.80;;;;;;5065935;28;20040;-73
2020/12/30 07:08:51;;;;;;;5.32;2.53;;;1.90;46.50;;;;;;5061552;28;20418;-72
2020/12/30 07:11:37;;;;;;;9.13;2.95;;;1.80;47.10;;;;;;5065964;28;20053;-74
2020/12/30 07:14:06;;;;;;;5.40;2.92;;;1.90;46.90;;;;;;5066562;28;20040;-73
2020/12/30 07:16:35;;;;;;;4.20;2.63;;;1.90;46.70;;;;;;5066291;28;20058;-73
2020/12/30 07:19:08;;;;;;;5.07;2.92;;;1.90;45.40;;;;;;5061880;28;20045;-73
2020/12/30 07:21:57;;;;;;;8.70;2.97;;;2.00;45.40;;;;;;5067149;28;20405;-72
2020/12/30 07:24:26;;;;;;;6.55;3.28;;;2.00;44.60;;;;;;5067683;28;20791;-74
2020/12/30 07:26:56;;;;;;;5.28;2.80;;;2.00;45.70;;;;;;5068937;28;20041;-74
2020/12/30 07:29:23;;;;;;;5.13;2.78;;;2.10;44.80;;;;;;5066442;28;20561;-73
2020/12/30 07:31:54;;;;;;;5.65;3.10;;;2.20;43.90;;;;;;5070638;28;20146;-72
2020/12/30 07:34:23;;;;;;;6.88;3.13;;;2.30;43.50;;;;;;5068491;28;20387;-75
2020/12/30 07:36:50;;;;;;;8.50;2.92;;;2.30;42.70;;;;;;5068164;28;20048;-74
2020/12/30 07:39:26;;;;;;;5.38;2.90;;;2.30;42.70;;;;;;5068253;28;20586;-75
2020/12/30 07:41:53;;;;;;;4.63;2.97;;;2.30;42.00;;;;;;5070063;28;20040;-74
2020/12/30 07:44:22;;;;;;;5.97;3.35;;;2.40;42.30;;;;;;5069431;28;20045;-75
2020/12/30 07:46:49;;;;;;;4.15;2.72;;;2.40;41.70;;;;;;5069235;28;20048;-74
2020/12/30 07:49:20;;;;;;;6.53;3.17;;;2.50;40.90;;;;;;5067634;28;20048;-73
2020/12/30 07:51:52;;;;;;;4.93;3.20;;;2.60;39.70;;;;;;5070017;28;20558;-73
2020/12/30 07:54:20;;;;;;;4.70;3.22;;;2.60;39.60;;;;;;5068579;28;20072;-73
2020/12/30 07:56:48;;;;;;;7.75;3.40;;;2.70;39.00;;;;;;5068585;28;20054;-74
2020/12/30 07:59:25;;;;;;;3.85;2.40;;;2.80;38.80;;;;;;5067404;28;20495;-73
2020/12/30 08:01:53;;;;;;;5.05;2.85;;;2.80;38.30;;;;;;5069458;28;20044;-73
2020/12/30 08:04:20;;;;;;;4.72;2.88;;;2.80;36.50;;;;;;5068630;28;20040;-73
2020/12/30 08:06:47;;;;;;;4.55;2.95;;;2.70;36.70;;;;;;5068728;28;20411;-75
2020/12/30 08:09:15;;;;;;;6.68;3.10;;;2.80;37.70;;;;;;5067974;28;20518;-74
2020/12/30 08:11:49;;;;;;;5.63;3.25;;;2.90;37.10;;;;;;5070034;28;20464;-72
2020/12/30 08:14:17;;;;;;;;;;;3.00;36.40;;;;;;5071415;28;20052;-73
2020/12/30 08:16:58;;;;;;;4.90;2.83;;;2.90;36.40;;;;;;5069616;28;19929;-76
2020/12/30 08:19:41;;;;;;;7.50;3.25;;;3.00;36.30;;;;;;5067689;28;20052;-73
2020/12/30 08:22:12;;;;;;;6.75;3.10;;;3.00;36.40;;;;;;5068442;28;20068;-74
2020/12/30 08:24:44;;;;;;;6.75;3.42;;;3.10;36.10;;;;;;5068978;28;20056;-73
2020/12/30 08:27:12;;;;;;;27.38;12.73;;;3.10;35.90;;;;;;5067736;28;20430;-73
2020/12/30 08:29:56;;;;;;;4.82;3.28;;;3.20;35.70;;;;;;5067895;28;20107;-74
2020/12/30 08:32:44;;;;;;;6.00;3.00;;;3.20;34.70;;;;;;5067905;28;20052;-72
2020/12/30 08:35:14;;;;;;;8.70;3.38;;;3.30;34.20;;;;;;5066984;28;20052;-74
2020/12/30 08:37:43;;;;;;;6.30;3.33;;;3.30;33.60;;;;;;5063558;28;20041;-74
2020/12/30 08:40:16;;;;;;;5.22;3.05;;;3.30;33.50;;;;;;5065951;28;20663;-73
2020/12/30 08:43:07;;;;;;;6.38;2.78;;;3.30;33.90;;;;;;5068188;28;20048;-73
2020/12/30 08:45:36;;;;;;;3.75;2.60;;;3.40;33.00;;;;;;5065993;28;20422;-73
2020/12/30 08:48:15;;;;;;;3.97;3.00;;;3.40;32.90;;;;;;5063782;28;20132;-73
2020/12/30 08:50:42;;;;;;;5.78;3.30;;;3.40;32.90;;;;;;5068746;28;20127;-73
2020/12/30 08:53:09;;;;;;;8.73;3.53;;;3.50;32.70;;;;;;5069434;28;20048;-74
2020/12/30 08:55:36;;;;;;;8.48;3.50;;;3.50;32.60;;;;;;5067302;28;20052;-73
2020/12/30 08:58:03;;;;;;;7.53;3.58;;;3.60;31.80;;;;;;5064151;28;20055;-73
2020/12/30 09:00:34;;;;;;;8.30;3.22;;;3.70;31.50;;;;;;5070523;28;20849;-73
2020/12/30 09:03:12;;;;;;;9.90;3.33;;;3.80;30.40;;;;;;5069634;28;20048;-73
2020/12/30 09:05:40;;;;;;;9.77;3.40;;;3.90;29.60;;;;;;5067199;28;20103;-74
2020/12/30 09:08:13;;;;;;;5.60;2.85;;;3.90;29.70;;;;;;5064061;28;20048;-74
2020/12/30 09:10:40;;;;;;;5.78;2.60;;;4.10;29.20;;;;;;5068555;28;20458;-74
2020/12/30 09:13:11;;;;;;;3.17;1.80;;;4.10;27.90;;;;;;5067913;28;20059;-72
2020/12/30 09:15:39;;;;;;;7.30;2.22;;;4.20;26.80;;;;;;5066922;28;20056;-74
2020/12/30 09:18:06;;;;;;;4.20;2.10;;;4.20;26.20;;;;;;5061262;28;20048;-73
2020/12/30 09:20:35;;;;;;;7.13;1.90;;;4.30;26.00;;;;;;5066359;28;20056;-75
2020/12/30 09:23:03;;;;;;;11.73;6.05;;;4.40;26.00;;;;;;5067478;28;20040;-73
2020/12/30 09:25:31;;;;;;;4.68;1.70;;;4.50;25.40;;;;;;5066455;28;20077;-73
2020/12/30 09:27:59;;;;;;;6.68;1.85;;;4.60;24.90;;;;;;5061217;28;20100;-73
2020/12/30 09:30:27;;;;;;;4.60;1.73;;;4.60;23.80;;;;;;5068116;28;21305;-74
2020/12/30 09:32:56;;;;;;;5.78;1.65;;;4.60;24.30;;;;;;5066657;28;20048;-74
2020/12/30 09:35:28;;;;;;;2.97;1.70;;;4.70;23.40;;;;;;5066931;28;20131;-74
2020/12/30 09:37:58;;;;;;;4.70;1.92;;;4.80;23.40;;;;;;5060888;28;20822;-72
2020/12/30 09:40:25;;;;;;;4.55;1.85;;;4.70;22.80;;;;;;5067811;28;20451;-73
2020/12/30 09:43:07;;;;;;;7.75;3.83;;;4.70;22.80;;;;;;5066237;28;20044;-72
2020/12/30 09:45:34;;;;;;;3.33;1.73;;;4.70;22.80;;;;;;5062111;28;20052;-73
2020/12/30 09:48:10;;;;;;;7.47;2.00;;;4.80;22.90;;;;;;5060960;28;20426;-74
2020/12/30 09:50:37;;;;;;;5.40;1.55;;;4.80;22.90;;;;;;5068525;28;20156;-74
2020/12/30 09:53:05;;;;;;;2.78;1.77;;;4.90;23.00;;;;;;5068937;28;20049;-75
2020/12/30 09:55:32;;;;;;;4.53;2.10;;;4.90;23.00;;;;;;5067390;28;20088;-73
2020/12/30 09:57:59;;;;;;;4.53;2.05;;;4.80;22.00;;;;;;5061073;28;20049;-72
2020/12/30 10:00:26;;;;;;;4.90;2.05;;;4.90;21.70;;;;;;5068806;28;20134;-74
2020/12/30 10:02:53;;;;;;;2.85;2.03;;;4.90;21.70;;;;;;5068507;28;20052;-73
2020/12/30 10:05:20;;;;;;;3.03;2.00;;;4.90;21.30;;;;;;5067289;28;20045;-75
2020/12/30 10:07:47;;;;;;;4.80;2.10;;;4.80;21.80;;;;;;5063511;28;20040;-72
2020/12/30 10:10:15;;;;;;;8.02;2.42;;;4.80;21.40;;;;;;5067429;28;20151;-74
2020/12/30 10:12:42;;;;;;;3.30;2.10;;;4.80;22.60;;;;;;5067743;28;20560;-74
2020/12/30 10:15:11;;;;;;;2.15;1.70;;;4.80;21.20;;;;;;5067810;28;20052;-75
2020/12/30 10:17:39;;;;;;;5.95;2.47;;;4.80;21.20;;;;;;5064551;28;20041;-74
2020/12/30 10:20:08;;;;;;;5.80;2.17;;;4.80;20.90;;;;;;5066634;28;20064;-75
2020/12/30 10:22:36;;;;;;;7.65;2.20;;;4.80;21.40;;;;;;5068132;28;20064;-75
2020/12/30 10:25:05;;;;;;;4.65;2.20;;;4.90;21.30;;;;;;5066298;28;20040;-73
2020/12/30 10:27:33;;;;;;;2.80;1.70;;;4.90;21.10;;;;;;5064945;28;20056;-73
2020/12/30 10:30:03;;;;;;;3.60;1.80;;;5.00;21.30;;;;;;5063361;28;20051;-73
2020/12/30 10:32:30;;;;;;;4.53;1.92;;;5.00;21.30;;;;;;5068038;28;20056;-74
2020/12/30 10:34:57;;;;;;;4.70;2.40;;;5.00;21.70;;;;;;5067170;28;20585;-74
2020/12/30 10:37:24;;;;;;;6.07;1.90;;;5.00;21.10;;;;;;5065357;28;20051;-72
2020/12/30 10:39:51;;;;;;;4.38;1.75;;;5.10;21.30;;;;;;5064951;28;20048;-73
2020/12/30 10:42:18;;;;;;;6.03;2.33;;;5.10;21.00;;;;;;5068113;28;20158;-72
2020/12/30 10:44:46;;;;;;;17.13;7.50;;;5.10;20.50;;;;;;5065310;28;20688;-75
2020/12/30 10:47:13;;;;;;;4.85;2.55;;;5.10;22.10;;;;;;5063129;28;20048;-73
2020/12/30 10:49:40;;;;;;;5.75;1.95;;;5.20;21.30;;;;;;5066379;28;20143;-73
2020/12/30 10:52:07;;;;;;;4.75;1.80;;;5.20;21.50;;;;;;5068013;28;20094;-74
2020/12/30 10:54:34;;;;;;;3.53;1.85;;;5.30;19.90;;;;;;5068312;28;20151;-72
2020/12/30 10:57:01;;;;;;;4.90;2.08;;;5.40;20.20;;;;;;5067216;28;20041;-74
2020/12/30 10:59:28;;;;;;;3.85;2.13;;;5.40;20.40;;;;;;5069200;28;20052;-73
2020/12/30 11:01:55;;;;;;;2.22;1.45;;;5.40;20.80;;;;;;5071256;28;20521;-73
2020/12/30 11:04:23;;;;;;;6.95;1.77;;;5.50;19.10;;;;;;5070818;28;20059;-73
2020/12/30 11:06:51;;;;;;;4.88;2.08;;;5.50;18.70;;;;;;5070940;28;20514;-73
2020/12/30 11:09:17;;;;;;;6.13;3.33;;;5.40;19.60;;;;;;5069221;28;20048;-73
2020/12/30 11:11:45;;;;;;;5.85;3.42;;;5.60;18.70;;;;;;5070350;28;20530;-71
2020/12/30 11:14:12;;;;;;;8.68;2.83;;;5.50;18.30;;;;;;5070680;28;20045;-76
2020/12/30 11:16:39;;;;;;;3.20;1.98;;;5.50;18.70;;;;;;5070765;28;20067;-73
2020/12/30 11:19:06;;;;;;;7.55;2.33;;;5.50;18.50;;;;;;5067350;28;20040;-75
2020/12/30 11:21:34;;;;;;;10.98;2.10;;;5.50;18.30;;;;;;5071466;28;20483;-73
2020/12/30 11:24:01;;;;;;;3.53;1.73;;;5.60;19.10;;;;;;5071906;28;20056;-76
2020/12/30 11:26:27;;;;;;;5.65;2.00;;;5.60;18.00;;;;;;5071927;28;20044;-75
2020/12/30 11:28:54;;;;;;;3.97;1.60;;;5.60;18.20;;;;;;5068268;28;20052;-73
2020/12/30 11:31:21;;;;;;;3.67;1.60;;;5.60;17.50;;;;;;5072709;28;20051;-74
2020/12/30 11:33:48;;;;;;;4.70;1.60;;;5.50;17.20;;;;;;5071767;28;20048;-73
2020/12/30 11:36:16;;;;;;;2.47;1.67;;;5.50;17.70;;;;;;5071507;28;20078;-80
2020/12/30 11:38:43;;;;;;;5.18;1.95;;;5.60;17.00;;;;;;5068117;28;20803;-75
2020/12/30 11:41:11;;;;;;;4.53;1.80;;;5.50;17.70;;;;;;5072438;28;20044;-76
2020/12/30 11:43:38;;;;;;;4.68;2.00;;;5.60;17.60;;;;;;5071883;28;20056;-74
2020/12/30 11:46:05;;;;;;;4.60;1.73;;;5.70;17.90;;;;;;5071251;28;20494;-77
2020/12/30 11:48:32;;;;;;;7.28;1.98;;;5.70;17.80;;;;;;5067992;28;20049;-74
2020/12/30 11:50:59;;;;;;;2.72;1.80;;;5.80;17.80;;;;;;5071995;28;20056;-73
2020/12/30 11:53:26;;;;;;;4.35;1.80;;;5.80;17.70;;;;;;5070453;28;20434;-74
2020/12/30 11:55:53;;;;;;;4.50;1.73;;;5.80;18.20;;;;;;5071702;28;20504;-74
2020/12/30 11:58:20;;;;;;;5.63;1.50;;;5.70;18.30;;;;;;5066683;28;20048;-75
2020/12/30 12:00:47;;;;;;;3.85;1.60;;;5.80;18.00;;;;;;5071095;28;20723;-75
2020/12/30 12:03:13;;;;;;;3.75;1.70;;;5.90;17.80;;;;;;5070635;28;20044;-74
2020/12/30 12:05:42;;;;;;;5.95;2.97;;;6.00;17.80;;;;;;5070838;28;20051;-76
2020/12/30 12:08:09;;;;;;;2.28;1.40;;;6.10;17.80;;;;;;5066512;28;20052;-74
2020/12/30 12:10:36;;;;;;;4.88;1.60;;;6.10;16.80;;;;;;5070502;28;20593;-74
2020/12/30 12:13:03;;;;;;;3.50;1.55;;;6.20;17.70;;;;;;5071092;28;20040;-74
2020/12/30 12:15:30;;;;;;;1.30;0.95;;;6.00;17.00;;;;;;5070249;28;20101;-76
2020/12/30 12:17:57;;;;;;;2.03;1.08;;;6.00;17.30;;;;;;5068125;28;20415;-74
2020/12/30 12:20:24;;;;;;;2.03;0.90;;;5.90;17.50;;;;;;5069729;28;20111;-73
2020/12/30 12:22:51;;;;;;;1.10;0.80;;;5.90;16.70;;;;;;5070928;28;20048;-75
2020/12/30 12:25:18;;;;;;;2.70;1.30;;;6.00;17.10;;;;;;5070192;28;20387;-74
2020/12/30 12:27:45;;;;;;;3.03;1.63;;;5.90;17.30;;;;;;5066054;28;20040;-74
2020/12/30 12:30:12;;;;;;;3.40;1.00;;;5.90;17.60;;;;;;5067906;28;20052;-73
2020/12/30 12:32:39;;;;;;;2.60;1.27;;;6.00;17.40;;;;;;5069680;28;20040;-75
2020/12/30 12:35:06;;;;;;;2.95;1.10;;;5.90;17.80;;;;;;5069336;28;20045;-75
2020/12/30 12:37:33;;;;;;;3.03;1.50;;;5.90;18.00;;;;;;5071551;28;20697;-72
2020/12/30 12:39:59;;;;;;;1.80;1.30;;;5.90;18.60;;;;;;5069107;28;20068;-73
2020/12/30 12:42:26;;;;;;;4.93;1.35;;;5.80;17.20;;;;;;5071371;28;20056;-72
2020/12/30 12:44:54;;;;;;;4.57;1.25;;;6.00;18.40;;;;;;5071174;28;20078;-74
2020/12/30 12:47:21;;;;;;;2.70;1.63;;;6.00;17.90;;;;;;5072066;28;20046;-72
2020/12/30 12:49:48;;;;;;;1.60;1.00;;;6.00;17.70;;;;;;5069591;28;20434;-73
2020/12/30 12:52:15;;;;;;;4.13;1.50;;;5.90;18.00;;;;;;5070765;28;20044;-73
2020/12/30 12:54:42;;;;;;;3.28;1.00;;;6.00;18.00;;;;;;5071087;28;20052;-74
2020/12/30 12:57:08;;;;;;;5.55;1.63;;;5.90;18.50;;;;;;5067790;28;20107;-72
2020/12/30 12:59:36;;;;;;;3.80;1.58;;;5.70;18.80;;;;;;5068520;28;20048;-72
2020/12/30 13:02:06;;;;;;;2.45;1.48;;;5.80;19.10;;;;;;5071666;28;20408;-73
2020/12/30 13:04:33;;;;;;;2.58;1.02;;;5.90;17.60;;;;;;5070626;28;20052;-73